createdAt,value
2017-01-01T00:00:06.484Z,925.04
2017-01-01T00:00:23.797Z,925.06
2017-01-01T00:00:41.069Z,925.05
2017-01-01T00:00:58.274Z,925.04
2017-01-01T00:01:15.470Z,925.04
2017-01-01T00:01:32.726Z,925.05
2017-01-01T00:01:49.965Z,925.08
2017-01-01T00:02:07.294Z,925.02
2017-01-01T00:02:24.583Z,925.04
2017-01-01T00:02:41.779Z,925.03
2017-01-01T00:02:58.981Z,925.03
2017-01-01T00:03:16.860Z,925.05
2017-01-01T00:03:34.039Z,925.03
2017-01-01T00:03:51.250Z,925.07
2017-01-01T00:04:08.441Z,925.03
2017-01-01T00:04:25.639Z,925.02
2017-01-01T00:04:42.831Z,925.06
2017-01-01T00:05:00.031Z,925
2017-01-01T00:05:17.196Z,925.01
2017-01-01T00:05:34.387Z,925.01
2017-01-01T00:05:51.599Z,925
2017-01-01T00:06:08.773Z,924.99
2017-01-01T00:06:25.965Z,925.01
2017-01-01T00:06:43.171Z,925.03
2017-01-01T00:07:00.336Z,925.01
2017-01-01T00:07:17.543Z,925.01
2017-01-01T00:07:34.725Z,925
2017-01-01T00:07:51.940Z,925
2017-01-01T00:08:09.118Z,925.04
2017-01-01T00:08:26.325Z,925.01
2017-01-01T00:08:43.528Z,925.04
2017-01-01T00:09:00.703Z,925.05
2017-01-01T00:09:17.891Z,925.04
2017-01-01T00:09:35.065Z,925.02
2017-01-01T00:09:52.243Z,925
2017-01-01T00:10:09.408Z,925.01
2017-01-01T00:10:26.596Z,925.02
2017-01-01T00:10:43.776Z,925.01
2017-01-01T00:11:00.969Z,925.02
2017-01-01T00:11:18.139Z,924.99
2017-01-01T00:11:35.314Z,925.01
2017-01-01T00:11:52.520Z,924.99
2017-01-01T00:12:09.722Z,924.99
2017-01-01T00:12:26.921Z,925.02
2017-01-01T00:12:44.126Z,924.96
2017-01-01T00:13:01.294Z,925
2017-01-01T00:13:18.484Z,925
2017-01-01T00:13:35.701Z,924.99
2017-01-01T00:13:53.113Z,925.02
2017-01-01T00:14:10.395Z,924.98
2017-01-01T00:14:27.652Z,924.96
2017-01-01T00:14:44.835Z,924.98
2017-01-01T00:15:02.006Z,924.96
2017-01-01T00:15:19.175Z,924.99
2017-01-01T00:15:36.356Z,925
2017-01-01T00:15:53.590Z,924.99
2017-01-01T00:16:10.784Z,924.99
2017-01-01T00:16:27.975Z,924.96
2017-01-01T00:16:45.189Z,924.99
2017-01-01T00:17:02.574Z,924.97
2017-01-01T00:17:19.806Z,924.98
2017-01-01T00:17:37.055Z,924.99
2017-01-01T00:17:54.273Z,925.01
2017-01-01T00:18:11.454Z,925.07
2017-01-01T00:18:28.634Z,925.02
2017-01-01T00:18:45.826Z,925.05
2017-01-01T00:19:03.030Z,925.02
2017-01-01T00:19:20.228Z,925.01
2017-01-01T00:19:37.537Z,925.05
2017-01-01T00:19:54.767Z,925.07
2017-01-01T00:20:12.036Z,925.07
2017-01-01T00:20:29.311Z,925.09
2017-01-01T00:20:46.557Z,925.06
2017-01-01T00:21:03.750Z,925.06
2017-01-01T00:21:20.934Z,925.08
2017-01-01T00:21:38.144Z,925.07
2017-01-01T00:21:55.337Z,925.08
2017-01-01T00:22:12.667Z,925.06
2017-01-01T00:22:29.847Z,925.07
2017-01-01T00:22:47.090Z,925.06
2017-01-01T00:23:04.278Z,925.05
2017-01-01T00:23:22.146Z,925.05
2017-01-01T00:23:39.365Z,925.02
2017-01-01T00:23:56.549Z,925.04
2017-01-01T00:24:13.945Z,925.03
2017-01-01T00:24:31.131Z,925
2017-01-01T00:24:48.292Z,925.04
2017-01-01T00:25:05.504Z,925.04
2017-01-01T00:25:22.724Z,925.02
2017-01-01T00:25:40.448Z,924.98
2017-01-01T00:25:57.643Z,925.07
2017-01-01T00:26:14.836Z,925.04
2017-01-01T00:26:32.045Z,925
2017-01-01T00:26:49.211Z,925.03
2017-01-01T00:27:06.386Z,925.01
2017-01-01T00:27:23.572Z,925
2017-01-01T00:27:40.779Z,925.06
2017-01-01T00:27:57.967Z,925.06
2017-01-01T00:28:15.243Z,925.05
2017-01-01T00:28:32.498Z,925.05
2017-01-01T00:28:49.686Z,925.01
2017-01-01T00:29:06.941Z,925.01
2017-01-01T00:29:24.114Z,925.06
2017-01-01T00:29:41.299Z,925.02
2017-01-01T00:29:58.941Z,925.05
2017-01-01T00:30:16.145Z,924.99
2017-01-01T00:30:33.328Z,925.04
2017-01-01T00:30:50.538Z,925.03
2017-01-01T00:31:07.731Z,925.05
2017-01-01T00:31:24.920Z,925.09
2017-01-01T00:31:42.094Z,925.03
2017-01-01T00:31:59.286Z,925.05
2017-01-01T00:32:16.466Z,925.1
2017-01-01T00:32:33.639Z,925.11
2017-01-01T00:32:50.844Z,925.16
2017-01-01T00:33:08.036Z,925.17
2017-01-01T00:33:25.200Z,925.15
2017-01-01T00:33:42.388Z,925.14
2017-01-01T00:33:59.604Z,925.15
2017-01-01T00:34:16.784Z,925.13
2017-01-01T00:34:33.948Z,925.16
2017-01-01T00:34:51.120Z,925.17
2017-01-01T00:35:08.325Z,925.19
2017-01-01T00:35:25.511Z,925.11
2017-01-01T00:35:42.681Z,925.12
2017-01-01T00:35:59.876Z,925.16
2017-01-01T00:36:17.081Z,925.14
2017-01-01T00:36:34.356Z,925.21
2017-01-01T00:36:51.629Z,925.14
2017-01-01T00:37:08.794Z,925.16
2017-01-01T00:37:25.974Z,925.15
2017-01-01T00:37:43.156Z,925.13
2017-01-01T00:38:00.482Z,925.1
2017-01-01T00:38:17.694Z,925.08
2017-01-01T00:38:34.887Z,925.12
2017-01-01T00:38:52.071Z,925.1
2017-01-01T00:39:09.255Z,925.13
2017-01-01T00:39:26.444Z,925.14
2017-01-01T00:39:43.675Z,925.09
2017-01-01T00:40:00.864Z,925.13
2017-01-01T00:40:18.104Z,925.12
2017-01-01T00:40:35.288Z,925.15
2017-01-01T00:40:52.440Z,925.15
2017-01-01T00:41:09.658Z,925.18
2017-01-01T00:41:26.839Z,925.12
2017-01-01T00:41:44.024Z,925.15
2017-01-01T00:42:01.221Z,925.18
2017-01-01T00:42:18.387Z,925.15
2017-01-01T00:42:35.581Z,925.15
2017-01-01T00:42:52.817Z,925.15
2017-01-01T00:43:10.035Z,925.17
2017-01-01T00:43:27.225Z,925.16
2017-01-01T00:43:44.405Z,925.16
2017-01-01T00:44:01.593Z,925.13
2017-01-01T00:44:19.424Z,925.15
2017-01-01T00:44:36.619Z,925.13
2017-01-01T00:44:53.801Z,925.15
2017-01-01T00:45:10.990Z,925.18
2017-01-01T00:45:28.177Z,925.16
2017-01-01T00:45:45.518Z,925.23
2017-01-01T00:46:02.740Z,925.22
2017-01-01T00:46:19.948Z,925.25
2017-01-01T00:46:37.140Z,925.24
2017-01-01T00:46:54.333Z,925.23
2017-01-01T00:47:11.533Z,925.26
2017-01-01T00:47:28.730Z,925.26
2017-01-01T00:47:45.957Z,925.24
2017-01-01T00:48:03.134Z,925.22
2017-01-01T00:48:20.328Z,925.28
2017-01-01T00:48:37.553Z,925.24
2017-01-01T00:48:54.768Z,925.23
2017-01-01T00:49:11.965Z,925.2
2017-01-01T00:49:29.163Z,925.21
2017-01-01T00:49:46.349Z,925.25
2017-01-01T00:50:03.569Z,925.22
2017-01-01T00:50:20.749Z,925.27
2017-01-01T00:50:37.926Z,925.25
2017-01-01T00:50:55.130Z,925.25
2017-01-01T00:51:12.346Z,925.22
2017-01-01T00:51:29.538Z,925.22
2017-01-01T00:51:46.721Z,925.21
2017-01-01T00:52:03.959Z,925.24
2017-01-01T00:52:21.158Z,925.19
2017-01-01T00:52:38.341Z,925.2
2017-01-01T00:52:55.541Z,925.21
2017-01-01T00:53:12.753Z,925.19
2017-01-01T00:53:29.934Z,925.25
2017-01-01T00:53:47.122Z,925.22
2017-01-01T00:54:04.319Z,925.22
2017-01-01T00:54:21.508Z,925.23
2017-01-01T00:54:38.737Z,925.24
2017-01-01T00:54:55.917Z,925.18
2017-01-01T00:55:13.108Z,925.23
2017-01-01T00:55:30.952Z,925.29
2017-01-01T00:55:48.174Z,925.24
2017-01-01T00:56:05.373Z,925.25
2017-01-01T00:56:22.562Z,925.24
2017-01-01T00:56:39.741Z,925.17
2017-01-01T00:56:56.982Z,925.23
2017-01-01T00:57:14.178Z,925.22
2017-01-01T00:57:31.390Z,925.25
2017-01-01T00:57:48.584Z,925.25
2017-01-01T00:58:05.771Z,925.23
2017-01-01T00:58:22.987Z,925.23
2017-01-01T00:58:40.153Z,925.25
2017-01-01T00:58:57.305Z,925.26
2017-01-01T00:59:14.517Z,925.25
2017-01-01T00:59:31.693Z,925.25
2017-01-01T00:59:48.918Z,925.25
2017-01-01T01:00:06.108Z,925.23
2017-01-01T01:00:23.308Z,925.24
2017-01-01T01:00:40.497Z,925.29
2017-01-01T01:00:57.678Z,925.28
2017-01-01T01:01:14.851Z,925.29
2017-01-01T01:01:32.043Z,925.27
2017-01-01T01:01:49.246Z,925.28
2017-01-01T01:02:06.445Z,925.3
2017-01-01T01:02:23.652Z,925.28
2017-01-01T01:02:40.836Z,925.29
2017-01-01T01:02:58.043Z,925.29
2017-01-01T01:03:15.231Z,925.31
2017-01-01T01:03:32.436Z,925.34
2017-01-01T01:03:49.644Z,925.35
2017-01-01T01:04:06.796Z,925.32
2017-01-01T01:04:23.995Z,925.34
2017-01-01T01:04:41.175Z,925.33
2017-01-01T01:04:58.347Z,925.3
2017-01-01T01:05:15.559Z,925.34
2017-01-01T01:05:32.771Z,925.32
2017-01-01T01:05:49.960Z,925.38
2017-01-01T01:06:07.159Z,925.39
2017-01-01T01:06:24.337Z,925.39
2017-01-01T01:06:41.521Z,925.35
2017-01-01T01:06:58.697Z,925.37
2017-01-01T01:07:15.888Z,925.4
2017-01-01T01:07:33.080Z,925.36
2017-01-01T01:07:50.285Z,925.36
2017-01-01T01:08:08.126Z,925.39
2017-01-01T01:08:25.326Z,925.37
2017-01-01T01:08:42.517Z,925.45
2017-01-01T01:08:59.693Z,925.39
2017-01-01T01:09:16.883Z,925.42
2017-01-01T01:09:34.060Z,925.44
2017-01-01T01:09:51.298Z,925.5
2017-01-01T01:10:08.479Z,925.5
2017-01-01T01:10:25.671Z,925.45
2017-01-01T01:10:42.951Z,925.46
2017-01-01T01:11:00.143Z,925.48
2017-01-01T01:11:17.338Z,925.46
2017-01-01T01:11:34.535Z,925.47
2017-01-01T01:11:51.725Z,925.48
2017-01-01T01:12:08.998Z,925.53
2017-01-01T01:12:26.387Z,925.5
2017-01-01T01:12:43.585Z,925.51
2017-01-01T01:13:00.800Z,925.54
2017-01-01T01:13:17.984Z,925.54
2017-01-01T01:13:35.176Z,925.52
2017-01-01T01:13:52.377Z,925.52
2017-01-01T01:14:09.592Z,925.53
2017-01-01T01:14:26.793Z,925.48
2017-01-01T01:14:43.972Z,925.54
2017-01-01T01:15:01.174Z,925.52
2017-01-01T01:15:18.370Z,925.58
2017-01-01T01:15:36.234Z,925.6
2017-01-01T01:15:53.428Z,925.54
2017-01-01T01:16:10.611Z,925.58
2017-01-01T01:16:27.782Z,925.62
2017-01-01T01:16:44.995Z,925.52
2017-01-01T01:17:02.200Z,925.54
2017-01-01T01:17:19.408Z,925.53
2017-01-01T01:17:36.586Z,925.59
2017-01-01T01:17:53.774Z,925.57
2017-01-01T01:18:10.965Z,925.59
2017-01-01T01:18:28.157Z,925.58
2017-01-01T01:18:45.364Z,925.54
2017-01-01T01:19:02.561Z,925.57
2017-01-01T01:19:19.745Z,925.61
2017-01-01T01:19:36.936Z,925.6
2017-01-01T01:19:54.243Z,925.53
2017-01-01T01:20:11.716Z,925.58
2017-01-01T01:20:28.932Z,925.54
2017-01-01T01:20:46.152Z,925.51
2017-01-01T01:21:03.351Z,925.52
2017-01-01T01:21:21.188Z,925.56
2017-01-01T01:21:38.378Z,925.54
2017-01-01T01:21:55.576Z,925.54
2017-01-01T01:22:12.747Z,925.58
2017-01-01T01:22:29.944Z,925.59
2017-01-01T01:22:47.111Z,925.57
2017-01-01T01:23:04.325Z,925.56
2017-01-01T01:23:21.504Z,925.59
2017-01-01T01:23:38.687Z,925.59
2017-01-01T01:23:55.871Z,925.56
2017-01-01T01:24:13.053Z,925.58
2017-01-01T01:24:30.234Z,925.56
2017-01-01T01:24:47.454Z,925.57
2017-01-01T01:25:04.659Z,925.59
2017-01-01T01:25:21.833Z,925.58
2017-01-01T01:25:39.027Z,925.59
2017-01-01T01:25:56.196Z,925.56
2017-01-01T01:26:13.396Z,925.56
2017-01-01T01:26:30.614Z,925.55
2017-01-01T01:26:47.818Z,925.57
2017-01-01T01:27:05.014Z,925.52
2017-01-01T01:27:22.216Z,925.56
2017-01-01T01:27:40.069Z,925.55
2017-01-01T01:27:57.257Z,925.49
2017-01-01T01:28:14.447Z,925.52
2017-01-01T01:28:31.629Z,925.51
2017-01-01T01:28:48.846Z,925.54
2017-01-01T01:29:06.033Z,925.57
2017-01-01T01:29:23.217Z,925.52
2017-01-01T01:29:41.105Z,925.56
2017-01-01T01:29:58.307Z,925.59
2017-01-01T01:30:15.507Z,925.55
2017-01-01T01:30:32.695Z,925.58
2017-01-01T01:30:49.931Z,925.58
2017-01-01T01:31:07.111Z,925.57
2017-01-01T01:31:24.299Z,925.55
2017-01-01T01:31:41.484Z,925.54
2017-01-01T01:31:58.683Z,925.56
2017-01-01T01:32:15.858Z,925.58
2017-01-01T01:32:33.051Z,925.6
2017-01-01T01:32:50.245Z,925.54
2017-01-01T01:33:21.836Z,925.57
2017-01-01T01:33:39.045Z,925.55
2017-01-01T01:33:56.229Z,925.58
2017-01-01T01:34:13.403Z,925.58
2017-01-01T01:34:30.560Z,925.62
2017-01-01T01:34:48.054Z,925.59
2017-01-01T01:35:05.269Z,925.62
2017-01-01T01:35:22.482Z,925.6
2017-01-01T01:35:39.657Z,925.61
2017-01-01T01:35:56.847Z,925.6
2017-01-01T01:36:14.025Z,925.59
2017-01-01T01:36:31.182Z,925.62
2017-01-01T01:36:48.363Z,925.6
2017-01-01T01:37:05.559Z,925.63
2017-01-01T01:37:22.751Z,925.63
2017-01-01T01:37:39.931Z,925.64
2017-01-01T01:37:57.110Z,925.66
2017-01-01T01:38:14.323Z,925.63
2017-01-01T01:38:31.501Z,925.65
2017-01-01T01:38:48.688Z,925.66
2017-01-01T01:39:05.897Z,925.65
2017-01-01T01:39:23.083Z,925.68
2017-01-01T01:39:40.281Z,925.69
2017-01-01T01:39:57.486Z,925.7
2017-01-01T01:40:14.647Z,925.69
2017-01-01T01:40:31.824Z,925.7
2017-01-01T01:40:48.974Z,925.68
2017-01-01T01:41:06.151Z,925.69
2017-01-01T01:41:23.331Z,925.66
2017-01-01T01:41:40.520Z,925.63
2017-01-01T01:41:57.722Z,925.63
2017-01-01T01:42:14.923Z,925.64
2017-01-01T01:42:32.128Z,925.6
2017-01-01T01:42:49.346Z,925.61
2017-01-01T01:43:06.557Z,925.6
2017-01-01T01:43:23.725Z,925.59
2017-01-01T01:43:40.942Z,925.57
2017-01-01T01:43:58.170Z,925.53
2017-01-01T01:44:16.050Z,925.56
2017-01-01T01:44:33.233Z,925.54
2017-01-01T01:44:50.451Z,925.57
2017-01-01T01:45:07.645Z,925.51
2017-01-01T01:45:24.821Z,925.53
2017-01-01T01:45:42.073Z,925.55
2017-01-01T01:45:59.261Z,925.52
2017-01-01T01:46:16.452Z,925.54
2017-01-01T01:46:33.652Z,925.49
2017-01-01T01:46:50.893Z,925.51
2017-01-01T01:47:08.106Z,925.48
2017-01-01T01:47:25.278Z,925.51
2017-01-01T01:47:42.444Z,925.55
2017-01-01T01:47:59.612Z,925.48
2017-01-01T01:48:16.829Z,925.5
2017-01-01T01:48:34.010Z,925.49
2017-01-01T01:48:51.227Z,925.46
2017-01-01T01:49:08.397Z,925.43
2017-01-01T01:49:25.636Z,925.43
2017-01-01T01:49:42.860Z,925.44
2017-01-01T01:50:00.698Z,925.45
2017-01-01T01:50:17.884Z,925.44
2017-01-01T01:50:35.092Z,925.41
2017-01-01T01:50:52.292Z,925.39
2017-01-01T01:51:09.516Z,925.41
2017-01-01T01:51:26.712Z,925.41
2017-01-01T01:51:43.918Z,925.41
2017-01-01T01:52:01.106Z,925.4
2017-01-01T01:52:18.310Z,925.36
2017-01-01T01:52:35.488Z,925.38
2017-01-01T01:52:52.704Z,925.37
2017-01-01T01:53:09.886Z,925.37
2017-01-01T01:53:27.122Z,925.39
2017-01-01T01:53:44.303Z,925.37
2017-01-01T01:54:01.489Z,925.39
2017-01-01T01:54:18.678Z,925.38
2017-01-01T01:54:35.883Z,925.36
2017-01-01T01:54:53.067Z,925.34
2017-01-01T01:55:10.265Z,925.32
2017-01-01T01:55:27.693Z,925.28
2017-01-01T01:55:44.891Z,925.34
2017-01-01T01:56:02.108Z,925.34
2017-01-01T01:56:19.290Z,925.33
2017-01-01T01:56:36.474Z,925.26
2017-01-01T01:56:54.500Z,925.27
2017-01-01T01:57:11.675Z,925.28
2017-01-01T01:57:28.886Z,925.32
2017-01-01T01:57:46.094Z,925.33
2017-01-01T01:58:03.264Z,925.29
2017-01-01T01:58:20.478Z,925.25
2017-01-01T01:58:37.671Z,925.31
2017-01-01T01:58:54.858Z,925.29
2017-01-01T01:59:12.035Z,925.28
2017-01-01T01:59:29.219Z,925.31
2017-01-01T01:59:46.402Z,925.29
2017-01-01T02:00:03.616Z,925.28
2017-01-01T02:00:21.480Z,925.26
2017-01-01T02:00:38.670Z,925.28
2017-01-01T02:00:55.854Z,925.26
2017-01-01T02:01:13.029Z,925.28
2017-01-01T02:01:30.213Z,925.27
2017-01-01T02:01:47.396Z,925.26
2017-01-01T02:02:04.586Z,925.31
2017-01-01T02:02:21.782Z,925.29
2017-01-01T02:02:38.959Z,925.28
2017-01-01T02:02:56.170Z,925.29
2017-01-01T02:03:13.355Z,925.3
2017-01-01T02:03:30.550Z,925.31
2017-01-01T02:03:47.743Z,925.28
2017-01-01T02:04:04.941Z,925.27
2017-01-01T02:04:22.149Z,925.26
2017-01-01T02:04:39.353Z,925.28
2017-01-01T02:04:56.534Z,925.31
2017-01-01T02:05:13.705Z,925.27
2017-01-01T02:05:30.925Z,925.26
2017-01-01T02:05:48.168Z,925.22
2017-01-01T02:06:06.019Z,925.28
2017-01-01T02:06:23.205Z,925.29
2017-01-01T02:06:40.378Z,925.29
2017-01-01T02:06:57.582Z,925.29
2017-01-01T02:07:14.789Z,925.26
2017-01-01T02:07:31.991Z,925.24
2017-01-01T02:07:49.203Z,925.26
2017-01-01T02:08:06.397Z,925.21
2017-01-01T02:08:23.587Z,925.18
2017-01-01T02:08:40.781Z,925.14
2017-01-01T02:08:58.000Z,925.21
2017-01-01T02:09:15.206Z,925.2
2017-01-01T02:09:32.420Z,925.16
2017-01-01T02:09:49.633Z,925.2
2017-01-01T02:10:06.845Z,925.13
2017-01-01T02:10:24.044Z,925.16
2017-01-01T02:10:41.226Z,925.15
2017-01-01T02:10:58.403Z,925.13
2017-01-01T02:11:15.582Z,925.14
2017-01-01T02:11:32.771Z,925.13
2017-01-01T02:11:49.972Z,925.19
2017-01-01T02:12:08.634Z,925.15
2017-01-01T02:12:25.835Z,925.18
2017-01-01T02:12:43.038Z,925.16
2017-01-01T02:13:00.220Z,925.15
2017-01-01T02:13:17.400Z,925.12
2017-01-01T02:13:34.614Z,925.18
2017-01-01T02:13:51.790Z,925.17
2017-01-01T02:14:08.980Z,925.18
2017-01-01T02:14:26.842Z,925.18
2017-01-01T02:14:44.013Z,925.17
2017-01-01T02:15:01.238Z,925.2
2017-01-01T02:15:18.446Z,925.16
2017-01-01T02:15:35.634Z,925.17
2017-01-01T02:15:52.840Z,925.18
2017-01-01T02:16:10.030Z,925.19
2017-01-01T02:16:27.206Z,925.15
2017-01-01T02:16:44.419Z,925.22
2017-01-01T02:17:01.599Z,925.22
2017-01-01T02:17:18.811Z,925.23
2017-01-01T02:17:36.007Z,925.22
2017-01-01T02:17:53.212Z,925.21
2017-01-01T02:18:10.425Z,925.22
2017-01-01T02:18:27.623Z,925.19
2017-01-01T02:18:44.785Z,925.22
2017-01-01T02:19:01.969Z,925.23
2017-01-01T02:19:19.148Z,925.27
2017-01-01T02:19:36.337Z,925.28
2017-01-01T02:19:53.511Z,925.27
2017-01-01T02:20:10.708Z,925.25
2017-01-01T02:20:27.904Z,925.24
2017-01-01T02:20:45.101Z,925.24
2017-01-01T02:21:02.299Z,925.22
2017-01-01T02:21:19.492Z,925.23
2017-01-01T02:21:36.660Z,925.25
2017-01-01T02:21:53.883Z,925.28
2017-01-01T02:22:11.046Z,925.26
2017-01-01T02:22:28.232Z,925.23
2017-01-01T02:22:45.420Z,925.25
2017-01-01T02:23:02.618Z,925.2
2017-01-01T02:23:19.818Z,925.2
2017-01-01T02:23:37.004Z,925.25
2017-01-01T02:23:54.206Z,925.19
2017-01-01T02:24:11.402Z,925.19
2017-01-01T02:24:28.601Z,925.18
2017-01-01T02:24:45.792Z,925.18
2017-01-01T02:25:02.995Z,925.19
2017-01-01T02:25:20.195Z,925.18
2017-01-01T02:25:37.397Z,925.16
2017-01-01T02:25:54.600Z,925.16
2017-01-01T02:26:11.802Z,925.16
2017-01-01T02:26:29.035Z,925.12
2017-01-01T02:26:46.213Z,925.13
2017-01-01T02:27:03.387Z,925.13
2017-01-01T02:27:20.590Z,925.12
2017-01-01T02:27:37.773Z,925.17
2017-01-01T02:27:54.967Z,925.18
2017-01-01T02:28:12.153Z,925.17
2017-01-01T02:28:29.334Z,925.21
2017-01-01T02:28:46.517Z,925.1
2017-01-01T02:29:03.692Z,925.19
2017-01-01T02:29:20.872Z,925.15
2017-01-01T02:29:38.072Z,925.14
2017-01-01T02:29:55.285Z,925.15
2017-01-01T02:30:12.500Z,925.13
2017-01-01T02:30:29.683Z,925.11
2017-01-01T02:30:46.865Z,925.14
2017-01-01T02:31:04.045Z,925.15
2017-01-01T02:31:21.262Z,925.17
2017-01-01T02:31:38.475Z,925.12
2017-01-01T02:31:55.657Z,925.09
2017-01-01T02:32:12.892Z,925.09
2017-01-01T02:32:30.057Z,925.13
2017-01-01T02:32:47.250Z,925.09
2017-01-01T02:33:04.646Z,925.12
2017-01-01T02:33:21.869Z,925.09
2017-01-01T02:33:39.069Z,925.04
2017-01-01T02:33:56.251Z,925.07
2017-01-01T02:34:13.422Z,925.07
2017-01-01T02:34:30.639Z,925.06
2017-01-01T02:34:47.808Z,925.06
2017-01-01T02:35:04.989Z,925.04
2017-01-01T02:35:22.157Z,925.1
2017-01-01T02:35:39.352Z,925.06
2017-01-01T02:35:56.544Z,925.04
2017-01-01T02:36:13.740Z,925.04
2017-01-01T02:36:30.932Z,925.04
2017-01-01T02:36:48.118Z,925.08
2017-01-01T02:37:05.312Z,925.04
2017-01-01T02:37:22.513Z,925.04
2017-01-01T02:37:39.720Z,925.06
2017-01-01T02:37:56.916Z,924.99
2017-01-01T02:38:14.075Z,924.99
2017-01-01T02:38:31.251Z,925.02
2017-01-01T02:38:48.443Z,925.04
2017-01-01T02:39:05.661Z,925
2017-01-01T02:39:22.866Z,924.99
2017-01-01T02:39:40.303Z,925.05
2017-01-01T02:39:57.519Z,925.05
2017-01-01T02:40:14.705Z,925.03
2017-01-01T02:40:31.897Z,925.04
2017-01-01T02:40:49.106Z,925.04
2017-01-01T02:41:06.281Z,924.99
2017-01-01T02:41:23.477Z,925.01
2017-01-01T02:41:40.694Z,924.99
2017-01-01T02:41:57.883Z,925.03
2017-01-01T02:42:15.097Z,925.01
2017-01-01T02:42:32.276Z,924.99
2017-01-01T02:42:49.468Z,925.02
2017-01-01T02:43:06.666Z,925
2017-01-01T02:43:23.876Z,924.99
2017-01-01T02:43:41.083Z,924.95
2017-01-01T02:43:58.301Z,924.97
2017-01-01T02:44:15.481Z,925.01
2017-01-01T02:44:32.665Z,925
2017-01-01T02:44:49.869Z,924.98
2017-01-01T02:45:07.039Z,925.01
2017-01-01T02:45:24.215Z,924.96
2017-01-01T02:45:41.423Z,925
2017-01-01T02:45:58.625Z,924.99
2017-01-01T02:46:15.807Z,924.97
2017-01-01T02:46:33.013Z,924.99
2017-01-01T02:46:50.211Z,925.06
2017-01-01T02:47:07.426Z,925.03
2017-01-01T02:47:24.603Z,924.99
2017-01-01T02:47:41.808Z,925
2017-01-01T02:47:58.981Z,925.03
2017-01-01T02:48:16.185Z,925.05
2017-01-01T02:48:33.367Z,925.05
2017-01-01T02:48:50.560Z,925.08
2017-01-01T02:49:07.767Z,924.99
2017-01-01T02:49:24.970Z,925.03
2017-01-01T02:49:42.165Z,925
2017-01-01T02:49:59.370Z,925.03
2017-01-01T02:50:16.583Z,925.08
2017-01-01T02:50:33.784Z,925.07
2017-01-01T02:50:50.988Z,925.05
2017-01-01T02:51:08.175Z,925.09
2017-01-01T02:51:25.388Z,925.03
2017-01-01T02:51:42.574Z,925.03
2017-01-01T02:51:59.771Z,925.06
2017-01-01T02:52:16.990Z,925.03
2017-01-01T02:52:34.148Z,925.07
2017-01-01T02:52:51.344Z,925.04
2017-01-01T02:53:09.184Z,925.05
2017-01-01T02:53:26.393Z,925.06
2017-01-01T02:53:43.578Z,925.06
2017-01-01T02:54:00.801Z,925.01
2017-01-01T02:54:17.986Z,925.04
2017-01-01T02:54:35.182Z,925
2017-01-01T02:54:52.379Z,925.07
2017-01-01T02:55:09.590Z,925.08
2017-01-01T02:55:26.800Z,925.07
2017-01-01T02:55:44.007Z,925.04
2017-01-01T02:56:01.179Z,925.09
2017-01-01T02:56:18.378Z,925.07
2017-01-01T02:56:35.556Z,925.08
2017-01-01T02:56:52.729Z,925.05
2017-01-01T02:57:09.925Z,925.01
2017-01-01T02:57:27.143Z,925.06
2017-01-01T02:57:44.366Z,925.09
2017-01-01T02:58:01.564Z,925.04
2017-01-01T02:58:18.755Z,925.09
2017-01-01T02:58:35.947Z,925.1
2017-01-01T02:58:53.127Z,925.06
2017-01-01T02:59:10.318Z,925.07
2017-01-01T02:59:27.511Z,925.08
2017-01-01T02:59:44.732Z,925.08
2017-01-01T03:00:01.941Z,925.08
2017-01-01T03:00:19.167Z,925.06
2017-01-01T03:00:36.368Z,925.08
2017-01-01T03:00:53.514Z,925.04
2017-01-01T03:01:11.910Z,925.07
2017-01-01T03:01:29.111Z,925.08
2017-01-01T03:01:46.310Z,925.07
2017-01-01T03:02:03.529Z,925.06
2017-01-01T03:02:20.706Z,925.09
2017-01-01T03:02:38.534Z,925.09
2017-01-01T03:02:55.686Z,925.05
2017-01-01T03:03:12.902Z,925.04
2017-01-01T03:03:30.077Z,925.05
2017-01-01T03:03:47.286Z,925.04
2017-01-01T03:04:05.109Z,925.03
2017-01-01T03:04:22.283Z,925.03
2017-01-01T03:04:39.612Z,925.01
2017-01-01T03:04:56.824Z,925.04
2017-01-01T03:05:14.026Z,925.04
2017-01-01T03:05:31.209Z,925.03
2017-01-01T03:05:48.415Z,925.02
2017-01-01T03:06:05.604Z,924.99
2017-01-01T03:06:22.815Z,925.03
2017-01-01T03:06:40.014Z,925.01
2017-01-01T03:06:57.207Z,925.01
2017-01-01T03:07:14.394Z,924.97
2017-01-01T03:07:31.576Z,924.99
2017-01-01T03:07:48.771Z,924.94
2017-01-01T03:08:05.951Z,924.97
2017-01-01T03:08:23.147Z,925
2017-01-01T03:08:40.345Z,924.98
2017-01-01T03:08:57.544Z,925
2017-01-01T03:09:14.751Z,925.03
2017-01-01T03:09:31.941Z,924.95
2017-01-01T03:09:49.135Z,924.94
2017-01-01T03:10:06.340Z,924.99
2017-01-01T03:10:23.511Z,924.99
2017-01-01T03:10:40.703Z,925
2017-01-01T03:10:57.884Z,924.93
2017-01-01T03:11:15.081Z,924.95
2017-01-01T03:11:32.266Z,924.95
2017-01-01T03:11:49.468Z,924.9
2017-01-01T03:12:06.651Z,924.9
2017-01-01T03:12:23.855Z,924.89
2017-01-01T03:12:41.071Z,924.92
2017-01-01T03:12:58.271Z,924.93
2017-01-01T03:13:15.479Z,924.88
2017-01-01T03:13:32.669Z,924.93
2017-01-01T03:13:49.912Z,924.88
2017-01-01T03:14:07.088Z,924.84
2017-01-01T03:14:24.287Z,924.9
2017-01-01T03:14:41.465Z,924.84
2017-01-01T03:14:58.670Z,924.84
2017-01-01T03:15:15.848Z,924.85
2017-01-01T03:15:33.048Z,924.9
2017-01-01T03:15:50.255Z,924.87
2017-01-01T03:16:07.435Z,924.9
2017-01-01T03:16:24.617Z,924.9
2017-01-01T03:16:41.835Z,924.84
2017-01-01T03:16:59.009Z,924.84
2017-01-01T03:17:16.205Z,924.88
2017-01-01T03:17:33.391Z,924.9
2017-01-01T03:17:50.584Z,924.88
2017-01-01T03:18:07.753Z,924.93
2017-01-01T03:18:24.968Z,924.86
2017-01-01T03:18:42.179Z,924.89
2017-01-01T03:18:59.362Z,924.84
2017-01-01T03:19:16.533Z,924.83
2017-01-01T03:19:33.826Z,924.84
2017-01-01T03:19:51.015Z,924.82
2017-01-01T03:20:08.217Z,924.82
2017-01-01T03:20:25.412Z,924.83
2017-01-01T03:20:42.600Z,924.83
2017-01-01T03:20:59.797Z,924.79
2017-01-01T03:21:16.981Z,924.79
2017-01-01T03:21:34.162Z,924.79
2017-01-01T03:21:51.343Z,924.8
2017-01-01T03:22:08.566Z,924.79
2017-01-01T03:22:26.422Z,924.78
2017-01-01T03:22:43.638Z,924.78
2017-01-01T03:23:00.825Z,924.78
2017-01-01T03:23:18.016Z,924.75
2017-01-01T03:23:35.188Z,924.81
2017-01-01T03:23:52.384Z,924.76
2017-01-01T03:24:09.538Z,924.79
2017-01-01T03:24:26.714Z,924.76
2017-01-01T03:24:43.915Z,924.82
2017-01-01T03:25:01.137Z,924.78
2017-01-01T03:25:18.329Z,924.73
2017-01-01T03:25:35.510Z,924.77
2017-01-01T03:25:52.710Z,924.76
2017-01-01T03:26:09.894Z,924.78
2017-01-01T03:26:27.067Z,924.77
2017-01-01T03:26:44.267Z,924.77
2017-01-01T03:27:01.481Z,924.76
2017-01-01T03:27:18.704Z,924.76
2017-01-01T03:27:35.892Z,924.72
2017-01-01T03:27:53.086Z,924.75
2017-01-01T03:28:10.296Z,924.73
2017-01-01T03:28:27.490Z,924.75
2017-01-01T03:28:44.691Z,924.7
2017-01-01T03:29:01.891Z,924.69
2017-01-01T03:29:19.078Z,924.66
2017-01-01T03:29:36.272Z,924.66
2017-01-01T03:29:53.455Z,924.69
2017-01-01T03:30:10.641Z,924.67
2017-01-01T03:30:27.844Z,924.69
2017-01-01T03:30:45.028Z,924.65
2017-01-01T03:31:02.193Z,924.67
2017-01-01T03:31:19.382Z,924.66
2017-01-01T03:31:36.584Z,924.65
2017-01-01T03:31:53.776Z,924.66
2017-01-01T03:32:10.969Z,924.7
2017-01-01T03:32:28.135Z,924.71
2017-01-01T03:32:45.316Z,924.71
2017-01-01T03:33:02.580Z,924.67
2017-01-01T03:33:21.806Z,924.69
2017-01-01T03:33:39.019Z,924.62
2017-01-01T03:33:56.220Z,924.66
2017-01-01T03:34:13.393Z,924.66
2017-01-01T03:34:30.861Z,924.71
2017-01-01T03:34:48.027Z,924.62
2017-01-01T03:35:05.213Z,924.67
2017-01-01T03:35:22.397Z,924.67
2017-01-01T03:35:39.582Z,924.64
2017-01-01T03:35:56.817Z,924.62